Time;durP1;ratioP1;P1;durP2;ratioP2;P2;SDS_P1;SDS_P2;PMS_P1;PMS_P2;Temp;Humidity;BMP_temperature;BMP_pressure;BME280_temperature;BME280_humidity;BME280_pressure;Samples;Min_cycle;Max_cycle;Signal;HPM_P1;HPM_P2
2021/10/18 00:01:54;;;;;;;;;;;;;;;9.63;100.00;99669.38;4929261;28;19915;-67
2021/10/18 00:04:19;;;;;;;;;;;;;;;9.47;100.00;99665.38;4929356;28;19985;-67
2021/10/18 00:06:45;;;;;;;;;;;;;;;9.86;100.00;99662.97;4928702;28;19966;-67
2021/10/18 00:09:10;;;;;;;;;;;;;;;9.88;100.00;99663.78;4930625;28;19969;-67
2021/10/18 00:11:36;;;;;;;;;;;;;;;10.17;100.00;99663.25;4999090;28;19919;-67
2021/10/18 00:14:01;;;;;;;;;;;;;;;9.83;100.00;99663.03;4924951;28;19922;-66
2021/10/18 00:16:27;;;;;;;;;;;;;;;10.16;100.00;99670.97;4924540;28;20491;-67
2021/10/18 00:18:52;;;;;;;;;;;;;;;10.25;100.00;99661.34;4929167;28;19915;-67
2021/10/18 00:21:18;;;;;;;;;;;;;;;10.02;100.00;99654.06;4896436;28;19915;-67
2021/10/18 00:23:43;;;;;;;;;;;;;;;10.33;100.00;99663.81;4928143;28;19934;-67
2021/10/18 00:26:09;;;;;;;;;;;;;;;10.13;100.00;99660.75;4928315;28;19925;-67
2021/10/18 00:28:34;;;;;;;;;;;;;;;9.92;100.00;99662.88;4926162;28;20441;-67
2021/10/18 00:31:00;;;;;;;;;;;;;;;9.52;100.00;99657.56;4935193;28;19923;-67
2021/10/18 00:33:25;;;;;;;;;;;;;;;9.60;100.00;99660.84;4925930;28;20011;-67
2021/10/18 00:35:51;;;;;;;;;;;;;;;10.09;100.00;99659.13;4929674;28;19918;-67
2021/10/18 00:38:16;;;;;;;;;;;;;;;10.04;100.00;99662.63;4925647;28;19921;-67
2021/10/18 00:40:41;;;;;;;;;;;;;;;10.13;100.00;99655.63;4997114;28;19918;-67
2021/10/18 00:43:07;;;;;;;;;;;;;;;9.50;100.00;99664.47;4907715;28;19918;-67
2021/10/18 00:45:33;;;;;;;;;;;;;;;9.74;100.00;99668.31;4932779;28;19930;-67
2021/10/18 00:47:59;;;;;;;;;;;;;;;9.73;100.00;99669.22;4928231;28;19923;-67
2021/10/18 00:50:25;;;;;;;;;;;;;;;9.57;100.00;99673.75;4924005;28;20441;-67
2021/10/18 00:52:50;;;;;;;;;;;;;;;9.43;100.00;99672.28;4928557;28;19934;-67
2021/10/18 00:55:16;;;;;;;;;;;;;;;9.16;100.00;99671.00;4933436;28;20052;-66
2021/10/18 00:57:41;;;;;;;;;;;;;;;9.23;100.00;99670.91;4929337;28;20357;-66
2021/10/18 01:00:08;;;;;;;;;;;;;;;9.32;100.00;99674.16;4993746;28;19919;-66
2021/10/18 01:02:34;;;;;;;;;;;;;;;9.40;100.00;99669.75;4967424;28;20000;-66
2021/10/18 01:04:59;;;;;;;;;;;;;;;9.13;100.00;99671.03;4938804;28;19930;-66
2021/10/18 01:07:25;;;;;;;;;;;;;;;8.85;100.00;99670.63;4934076;28;20377;-67
2021/10/18 01:09:50;;;;;;;;;;;;;;;8.78;100.00;99669.84;4930278;28;20321;-64
2021/10/18 01:12:16;;;;;;;;;;;;;;;8.68;100.00;99668.25;4938085;28;19930;-67
2021/10/18 01:14:41;;;;;;;;;;;;;;;8.73;100.00;99656.19;4973089;28;19926;-67
2021/10/18 01:17:07;;;;;;;;;;;;;;;8.95;100.00;99653.34;4933856;28;19919;-67
2021/10/18 01:19:32;;;;;;;;;;;;;;;8.72;100.00;99658.81;5000598;28;20191;-66
2021/10/18 01:22:01;;;;;;;;;;;;;;;8.83;100.00;99651.81;4938278;28;20383;-65
2021/10/18 01:24:27;;;;;;;;;;;;;;;9.00;100.00;99634.41;4930305;28;19926;-65
2021/10/18 01:26:53;;;;;;;;;;;;;;;8.76;100.00;99643.34;4932835;28;19925;-65
2021/10/18 01:29:18;;;;;;;;;;;;;;;8.84;100.00;99638.09;4929670;28;19914;-65
2021/10/18 01:31:44;;;;;;;;;;;;;;;8.77;100.00;99639.88;4933360;28;20006;-65
2021/10/18 01:34:09;;;;;;;;;;;;;;;9.16;100.00;99634.16;4930891;28;20358;-66
2021/10/18 01:36:34;;;;;;;;;;;;;;;9.06;100.00;99632.63;4930939;28;19918;-65
2021/10/18 01:39:00;;;;;;;;;;;;;;;9.11;100.00;99633.41;4930566;28;20445;-65
2021/10/18 01:41:26;;;;;;;;;;;;;;;9.07;100.00;99635.16;4935697;28;20013;-66
2021/10/18 01:43:51;;;;;;;;;;;;;;;9.31;100.00;99644.22;4927417;28;19942;-66
2021/10/18 01:46:16;;;;;;;;;;;;;;;9.49;100.00;99645.63;4934338;28;19926;-66
2021/10/18 01:48:42;;;;;;;;;;;;;;;9.92;100.00;99646.56;4928745;28;19959;-66
2021/10/18 01:51:08;;;;;;;;;;;;;;;9.56;100.00;99659.22;4937342;28;19915;-63
2021/10/18 01:53:33;;;;;;;;;;;;;;;9.67;100.00;99653.88;4936885;28;20423;-63
2021/10/18 01:55:59;;;;;;;;;;;;;;;9.40;100.00;99656.06;4938917;28;19915;-63
2021/10/18 01:58:24;;;;;;;;;;;;;;;9.45;100.00;99658.56;4937081;28;19930;-68
2021/10/18 02:00:49;;;;;;;;;;;;;;;9.38;100.00;99662.94;4932779;28;19922;-67
2021/10/18 02:03:15;;;;;;;;;;;;;;;9.48;100.00;99664.47;4906453;28;19923;-67
2021/10/18 02:05:40;;;;;;;;;;;;;;;9.41;100.00;99660.31;4934984;28;19926;-66
2021/10/18 02:08:06;;;;;;;;;;;;;;;9.12;100.00;99664.22;4907140;28;19930;-66
2021/10/18 02:10:31;;;;;;;;;;;;;;;8.99;100.00;99676.41;4945505;28;19918;-66
2021/10/18 02:12:57;;;;;;;;;;;;;;;9.09;100.00;99674.53;4941030;28;20432;-66
2021/10/18 02:15:22;;;;;;;;;;;;;;;8.79;100.00;99674.09;4937064;28;20300;-66
2021/10/18 02:17:48;;;;;;;;;;;;;;;8.79;100.00;99671.53;4944041;28;19914;-66
2021/10/18 02:20:14;;;;;;;;;;;;;;;8.87;100.00;99673.13;4939104;28;20017;-67
2021/10/18 02:22:39;;;;;;;;;;;;;;;8.98;100.00;99674.69;4942559;28;20104;-66
2021/10/18 02:25:06;;;;;;;;;;;;;;;9.01;100.00;99671.25;4945022;28;20648;-66
2021/10/18 02:27:31;;;;;;;;;;;;;;;9.12;100.00;99673.63;4939410;28;20006;-66
2021/10/18 02:29:57;;;;;;;;;;;;;;;9.24;100.00;99667.44;4937845;28;20001;-66
2021/10/18 02:32:22;;;;;;;;;;;;;;;9.41;100.00;99663.72;4932388;28;20017;-66
2021/10/18 02:34:48;;;;;;;;;;;;;;;9.56;100.00;99665.22;4943973;28;19930;-66
2021/10/18 02:37:13;;;;;;;;;;;;;;;9.38;100.00;99662.94;4958441;28;19919;-66
2021/10/18 02:39:39;;;;;;;;;;;;;;;9.30;100.00;99668.19;4971461;28;20277;-66
2021/10/18 02:42:04;;;;;;;;;;;;;;;9.58;100.00;99658.31;4908628;28;20307;-63
2021/10/18 02:44:30;;;;;;;;;;;;;;;9.31;100.00;99653.66;4933411;28;20025;-63
2021/10/18 02:46:55;;;;;;;;;;;;;;;9.54;100.00;99656.66;4940020;28;19926;-63
2021/10/18 02:49:21;;;;;;;;;;;;;;;9.70;100.00;99659.81;4927890;28;19918;-66
2021/10/18 02:51:47;;;;;;;;;;;;;;;9.60;100.00;99661.72;4908266;28;20528;-65
2021/10/18 02:54:12;;;;;;;;;;;;;;;9.53;100.00;99657.53;4929261;28;20706;-66
2021/10/18 02:56:38;;;;;;;;;;;;;;;9.30;100.00;99663.06;4928088;28;19922;-67
2021/10/18 02:59:03;;;;;;;;;;;;;;;9.30;100.00;99662.22;4929969;28;19945;-67
2021/10/18 03:01:29;;;;;;;;;;;;;;;9.33;100.00;99652.75;4929609;28;19919;-67
2021/10/18 03:03:54;;;;;;;;;;;;;;;9.34;100.00;99661.31;4930968;28;20537;-66
2021/10/18 03:06:20;;;;;;;;;;;;;;;8.82;100.00;99660.38;4928034;28;20004;-65
2021/10/18 03:08:45;;;;;;;;;;;;;;;8.88;100.00;99660.28;4931758;28;19914;-63
2021/10/18 03:11:10;;;;;;;;;;;;;;;8.49;100.00;99656.56;4936439;28;19929;-67
2021/10/18 03:13:36;;;;;;;;;;;;;;;8.55;100.00;99648.75;4937244;28;19923;-66
2021/10/18 03:16:01;;;;;;;;;;;;;;;8.18;100.00;99651.75;4946101;28;19925;-66
2021/10/18 03:18:27;;;;;;;;;;;;;;;8.74;100.00;99650.22;4945007;28;19919;-66
2021/10/18 03:20:52;;;;;;;;;;;;;;;8.79;100.00;99651.00;4937903;28;19941;-67
2021/10/18 03:23:18;;;;;;;;;;;;;;;9.06;100.00;99648.91;4941552;28;19919;-66
2021/10/18 03:25:44;;;;;;;;;;;;;;;9.24;100.00;99647.75;4906865;28;19925;-66
2021/10/18 03:28:09;;;;;;;;;;;;;;;8.87;100.00;99642.31;4939918;28;19923;-66
2021/10/18 03:30:34;;;;;;;;;;;;;;;8.59;100.00;99641.00;4990538;28;19921;-66
2021/10/18 03:33:00;;;;;;;;;;;;;;;8.64;100.00;99630.66;4935134;28;19922;-67
2021/10/18 03:35:25;;;;;;;;;;;;;;;8.92;100.00;99638.00;4910221;28;20006;-66
2021/10/18 03:37:51;;;;;;;;;;;;;;;8.68;100.00;99632.31;4930960;28;19918;-66
2021/10/18 03:40:16;;;;;;;;;;;;;;;8.86;100.00;99635.50;4928875;28;19930;-66
2021/10/18 03:42:42;;;;;;;;;;;;;;;8.86;100.00;99640.63;5003408;28;19914;-66
2021/10/18 03:45:08;;;;;;;;;;;;;;;8.76;100.00;99645.91;4927212;28;20301;-66
2021/10/18 03:47:33;;;;;;;;;;;;;;;8.69;100.00;99640.84;4979950;28;19915;-66
2021/10/18 03:49:59;;;;;;;;;;;;;;;8.74;100.00;99657.06;4926760;28;19932;-65
2021/10/18 03:52:24;;;;;;;;;;;;;;;8.58;100.00;99666.72;4930941;28;19958;-66
2021/10/18 03:54:50;;;;;;;;;;;;;;;8.64;100.00;99661.47;4932270;28;20290;-66
2021/10/18 03:57:16;;;;;;;;;;;;;;;8.42;100.00;99662.66;4949297;28;19917;-66
2021/10/18 03:59:42;;;;;;;;;;;;;;;8.42;100.00;99671.19;4940842;28;20387;-66
2021/10/18 04:02:08;;;;;;;;;;;;;;;8.50;100.00;99668.50;4947857;28;19923;-66
2021/10/18 04:04:33;;;;;;;;;;;;;;;8.44;100.00;99671.16;4945686;28;19923;-66
2021/10/18 04:06:59;;;;;;;;;;;;;;;8.53;100.00;99673.59;4987503;28;19926;-66
2021/10/18 04:09:24;;;;;;;;;;;;;;;8.84;100.00;99670.63;4942594;28;19965;-66
2021/10/18 04:11:50;;;;;;;;;;;;;;;8.53;100.00;99665.88;4949197;28;19921;-66
2021/10/18 04:14:16;;;;;;;;;;;;;;;8.38;100.00;99662.63;4944098;28;20332;-66
2021/10/18 04:16:41;;;;;;;;;;;;;;;8.57;100.00;99665.00;4945298;28;19973;-65
2021/10/18 04:19:06;;;;;;;;;;;;;;;8.77;100.00;99662.16;4933595;28;20430;-65
2021/10/18 04:21:32;;;;;;;;;;;;;;;8.52;100.00;99659.06;4931296;29;20594;-65
2021/10/18 04:23:57;;;;;;;;;;;;;;;8.48;100.00;99663.38;4931122;29;19919;-65
2021/10/18 04:26:23;;;;;;;;;;;;;;;8.64;100.00;99664.03;4915314;29;19914;-65
2021/10/18 04:28:48;;;;;;;;;;;;;;;8.60;100.00;99664.97;4932464;29;19945;-65
2021/10/18 04:31:14;;;;;;;;;;;;;;;8.58;100.00;99656.44;4930996;29;20013;-65
2021/10/18 04:33:39;;;;;;;;;;;;;;;8.69;100.00;99658.84;4931227;29;19919;-65
2021/10/18 04:36:05;;;;;;;;;;;;;;;8.63;100.00;99664.06;4915122;29;19915;-65
2021/10/18 04:38:30;;;;;;;;;;;;;;;8.66;100.00;99659.72;4915074;29;20277;-65
2021/10/18 04:40:56;;;;;;;;;;;;;;;8.44;100.00;99664.31;4930997;29;19924;-65
2021/10/18 04:43:21;;;;;;;;;;;;;;;8.43;100.00;99659.19;4930911;29;19922;-65
2021/10/18 04:45:47;;;;;;;;;;;;;;;8.40;100.00;99666.91;4930702;29;19926;-65
2021/10/18 04:48:12;;;;;;;;;;;;;;;8.28;100.00;99668.75;4930845;29;19919;-65
2021/10/18 04:50:38;;;;;;;;;;;;;;;8.43;100.00;99667.72;4918895;28;19965;-64
2021/10/18 04:53:03;;;;;;;;;;;;;;;8.46;100.00;99666.84;4956831;28;20379;-67
2021/10/18 04:55:29;;;;;;;;;;;;;;;8.38;100.00;99669.47;4946994;28;19921;-67
2021/10/18 04:58:01;;;;;;;;;;;;;;;8.47;100.00;99661.69;4942229;28;19924;-67
2021/10/18 05:00:28;;;;;;;;;;;;;;;8.55;100.00;99666.72;4943595;28;19999;-67
2021/10/18 05:02:53;;;;;;;;;;;;;;;8.82;100.00;99668.06;4935807;28;19941;-67
2021/10/18 05:05:19;;;;;;;;;;;;;;;8.99;100.00;99670.41;4937455;28;20042;-65
2021/10/18 05:07:45;;;;;;;;;;;;;;;8.91;100.00;99664.53;4925483;28;19926;-66
2021/10/18 05:10:13;;;;;;;;;;;;;;;8.53;100.00;99666.75;4946296;28;19925;-66
2021/10/18 05:12:38;;;;;;;;;;;;;;;8.56;100.00;99669.28;4940670;28;20285;-66
2021/10/18 05:15:04;;;;;;;;;;;;;;;8.50;100.00;99669.34;4951835;28;19915;-66
2021/10/18 05:17:30;;;;;;;;;;;;;;;8.47;100.00;99668.56;4935929;28;20347;-66
2021/10/18 05:19:55;;;;;;;;;;;;;;;8.49;100.00;99677.09;4950350;28;19973;-67
2021/10/18 05:22:20;;;;;;;;;;;;;;;8.45;100.00;99673.69;4922769;28;20288;-63
2021/10/18 05:24:46;;;;;;;;;;;;;;;8.41;100.00;99676.31;4933796;28;19919;-63
2021/10/18 05:27:11;;;;;;;;;;;;;;;8.54;100.00;99671.00;4938434;28;19919;-63
2021/10/18 05:29:37;;;;;;;;;;;;;;;8.38;100.00;99682.31;4934473;28;20332;-63
2021/10/18 05:32:03;;;;;;;;;;;;;;;8.43;100.00;99678.00;4930232;28;20377;-63
2021/10/18 05:34:28;;;;;;;;;;;;;;;8.65;100.00;99677.75;4935514;28;19966;-63
2021/10/18 05:36:54;;;;;;;;;;;;;;;8.60;100.00;99680.38;4931725;28;19976;-63
2021/10/18 05:39:19;;;;;;;;;;;;;;;8.57;100.00;99680.41;4934998;28;19924;-64
2021/10/18 05:41:44;;;;;;;;;;;;;;;8.60;100.00;99677.81;4931191;28;19939;-66
2021/10/18 05:44:10;;;;;;;;;;;;;;;8.65;100.00;99673.44;4928238;28;20008;-65
2021/10/18 05:46:35;;;;;;;;;;;;;;;8.51;100.00;99677.94;4928337;28;20294;-66
2021/10/18 05:49:01;;;;;;;;;;;;;;;8.54;100.00;99678.72;4933061;28;19976;-65
2021/10/18 05:51:29;;;;;;;;;;;;;;;8.54;100.00;99683.00;4929610;28;20004;-66
2021/10/18 05:53:55;;;;;;;;;;;;;;;8.69;100.00;99684.50;4931222;28;20285;-66
2021/10/18 05:56:20;;;;;;;;;;;;;;;8.65;100.00;99681.16;4925260;28;19944;-67
2021/10/18 05:58:46;;;;;;;;;;;;;;;8.59;100.00;99676.94;4991612;28;19919;-67
2021/10/18 06:01:11;;;;;;;;;;;;;;;8.79;100.00;99671.53;4944050;28;19924;-64
2021/10/18 06:03:37;;;;;;;;;;;;;;;8.58;100.00;99669.28;4958225;28;20375;-64
2021/10/18 06:06:06;;;;;;;;;;;;;;;8.82;100.00;99672.38;4962042;28;20248;-64
2021/10/18 06:08:32;;;;;;;;;;;;;;;8.98;100.00;99673.84;4962640;28;19921;-64
2021/10/18 06:10:57;;;;;;;;;;;;;;;9.02;100.00;99680.63;4906224;28;19919;-64
2021/10/18 06:13:24;;;;;;;;;;;;;;;8.83;100.00;99677.50;4953346;28;19928;-63
2021/10/18 06:15:49;;;;;;;;;;;;;;;8.79;100.00;99684.38;4972408;28;19941;-64
2021/10/18 06:18:15;;;;;;;;;;;;;;;8.81;100.00;99688.66;4958039;28;19922;-63
2021/10/18 06:20:42;;;;;;;;;;;;;;;8.82;100.00;99695.47;4951415;28;20395;-64
2021/10/18 06:23:07;;;;;;;;;;;;;;;8.98;100.00;99704.66;4964523;28;20399;-64
2021/10/18 06:25:33;;;;;;;;;;;;;;;8.86;100.00;99702.28;4966540;28;20012;-64
2021/10/18 06:27:59;;;;;;;;;;;;;;;8.97;100.00;99702.97;4937920;28;20052;-64
2021/10/18 06:30:26;;;;;;;;;;;;;;;8.85;100.00;99703.13;4922344;28;19915;-64
2021/10/18 06:32:52;;;;;;;;;;;;;;;8.98;100.00;99709.81;4937598;28;19923;-66
2021/10/18 06:35:17;;;;;;;;;;;;;;;9.00;100.00;99705.50;4928489;28;20023;-65
2021/10/18 06:37:43;;;;;;;;;;;;;;;8.95;100.00;99697.00;4928665;28;19919;-67
2021/10/18 06:40:08;;;;;;;;;;;;;;;9.02;100.00;99702.91;4930075;28;20380;-66
2021/10/18 06:42:34;;;;;;;;;;;;;;;9.16;100.00;99706.97;4927237;28;20382;-66
2021/10/18 06:44:59;;;;;;;;;;;;;;;8.96;100.00;99709.84;4929263;28;20367;-66
2021/10/18 06:47:25;;;;;;;;;;;;;;;9.43;100.00;99715.97;4928175;28;19950;-66
2021/10/18 06:49:50;;;;;;;;;;;;;;;9.36;100.00;99710.97;4935745;28;20006;-66
2021/10/18 06:52:15;;;;;;;;;;;;;;;9.54;100.00;99718.38;4932120;28;19969;-66
2021/10/18 06:54:41;;;;;;;;;;;;;;;9.32;100.00;99709.31;4932659;28;19926;-67
2021/10/18 06:57:07;;;;;;;;;;;;;;;9.53;100.00;99714.09;4945123;28;19955;-63
2021/10/18 06:59:32;;;;;;;;;;;;;;;9.71;100.00;99715.53;4996923;28;19949;-65
2021/10/18 07:01:58;;;;;;;;;;;;;;;9.82;100.00;99718.75;5012495;28;19914;-66
2021/10/18 07:04:24;;;;;;;;;;;;;;;9.73;100.00;99715.50;5007491;28;19980;-65
2021/10/18 07:06:55;;;;;;;;;;;;;;;9.88;100.00;99717.81;5012462;28;19963;-65
2021/10/18 07:09:27;;;;;;;;;;;;;;;9.86;100.00;99719.56;5012308;28;19949;-65
2021/10/18 07:11:52;;;;;;;;;;;;;;;9.81;100.00;99721.38;4997422;28;19914;-65
2021/10/18 07:14:18;;;;;;;;;;;;;;;10.08;100.00;99720.03;5012573;28;20433;-65
2021/10/18 07:16:43;;;;;;;;;;;;;;;10.16;100.00;99728.44;4993903;28;19954;-68
2021/10/18 07:19:09;;;;;;;;;;;;;;;10.08;100.00;99729.47;4935632;28;19920;-66
2021/10/18 07:21:35;;;;;;;;;;;;;;;10.07;100.00;99738.06;4926943;28;19915;-67
2021/10/18 07:24:04;;;;;;;;;;;;;;;10.32;100.00;99738.50;4943457;28;20025;-67
2021/10/18 07:26:29;;;;;;;;;;;;;;;10.38;100.00;99740.97;4945483;28;20413;-67
2021/10/18 07:28:55;;;;;;;;;;;;;;;10.60;100.00;99744.78;4945662;28;19954;-67
2021/10/18 07:31:20;;;;;;;;;;;;;;;10.80;100.00;99736.66;4979382;28;20299;-67
2021/10/18 07:33:46;;;;;;;;;;;;;;;10.34;100.00;99732.44;4944475;28;20862;-67
2021/10/18 07:36:20;;;;;;;;;;;;;;;10.15;100.00;99731.03;4945233;28;19977;-66
2021/10/18 07:38:45;;;;;;;;;;;;;;;9.96;100.00;99726.22;4943020;28;19925;-67
2021/10/18 07:41:11;;;;;;;;;;;;;;;10.21;100.00;99720.63;4946394;28;20005;-67
2021/10/18 07:43:36;;;;;;;;;;;;;;;10.55;100.00;99725.16;4936564;28;19923;-67
2021/10/18 07:46:02;;;;;;;;;;;;;;;10.72;100.00;99728.25;4939638;28;19952;-67
2021/10/18 07:48:27;;;;;;;;;;;;;;;10.71;100.00;99721.38;4938584;28;19915;-67
2021/10/18 07:50:52;;;;;;;;;;;;;;;10.59;100.00;99725.06;4947773;28;19915;-66
2021/10/18 07:53:18;;;;;;;;;;;;;;;10.55;100.00;99725.16;4945645;28;19914;-67
2021/10/18 07:55:43;;;;;;;;;;;;;;;10.97;100.00;99722.56;4947365;28;20009;-66
2021/10/18 07:58:09;;;;;;;;;;;;;;;11.08;100.00;99723.16;4942050;28;19953;-67
2021/10/18 08:00:34;;;;;;;;;;;;;;;11.05;100.00;99725.81;5000753;28;19977;-67
2021/10/18 08:03:00;;;;;;;;;;;;;;;11.21;100.00;99731.47;4929072;28;19927;-67
2021/10/18 08:05:26;;;;;;;;;;;;;;;11.14;100.00;99730.78;4905463;28;20092;-66
2021/10/18 08:07:52;;;;;;;;;;;;;;;11.48;100.00;99730.81;4937051;28;20009;-67
2021/10/18 08:10:24;;;;;;;;;;;;;;;11.54;100.00;99729.84;4967989;28;19945;-67
2021/10/18 08:12:54;;;;;;;;;;;;;;;11.36;100.00;99735.41;4935553;28;19922;-67
2021/10/18 08:15:19;;;;;;;;;;;;;;;11.44;100.00;99738.69;4938566;28;20419;-66
2021/10/18 08:17:45;;;;;;;;;;;;;;;11.65;100.00;99735.56;4938536;28;19915;-66
2021/10/18 08:20:10;;;;;;;;;;;;;;;11.45;100.00;99730.06;4931257;28;19930;-67
2021/10/18 08:22:36;;;;;;;;;;;;;;;11.54;100.00;99732.44;4937131;28;19919;-66
2021/10/18 08:25:02;;;;;;;;;;;;;;;11.60;100.00;99734.84;4894876;28;19919;-67
2021/10/18 08:27:28;;;;;;;;;;;;;;;11.82;100.00;99735.16;4929075;28;20432;-65
2021/10/18 08:29:54;;;;;;;;;;;;;;;11.91;100.00;99734.97;4930913;29;19965;-65
2021/10/18 08:32:19;;;;;;;;;;;;;;;12.28;100.00;99735.72;4931179;29;19915;-66
2021/10/18 08:34:44;;;;;;;;;;;;;;;12.36;100.00;99736.34;4915103;29;20006;-65
2021/10/18 08:37:10;;;;;;;;;;;;;;;12.43;100.00;99732.72;4931052;29;19965;-66
2021/10/18 08:42:19;;;;;;;;;;;;;;;12.12;100.00;99745.63;4933520;28;19922;-67
2021/10/18 08:44:47;;;;;;;;;;;;;;;12.38;100.00;99749.22;4938465;28;19953;-67
2021/10/18 08:47:13;;;;;;;;;;;;;;;12.58;100.00;99753.84;4936105;28;19915;-67
2021/10/18 08:49:38;;;;;;;;;;;;;;;12.61;100.00;99743.41;4933325;28;19977;-67
2021/10/18 08:52:05;;;;;;;;;;;;;;;12.10;100.00;99753.38;4931958;28;19977;-67
2021/10/18 08:54:30;;;;;;;;;;;;;;;12.32;100.00;99751.09;4934538;28;20021;-67
2021/10/18 08:56:56;;;;;;;;;;;;;;;12.58;100.00;99748.69;4929013;28;19918;-67
2021/10/18 08:59:25;;;;;;;;;;;;;;;12.78;100.00;99746.38;4938364;28;19930;-67
2021/10/18 09:01:51;;;;;;;;;;;;;;;12.62;100.00;99739.97;4924919;28;20547;-67
2021/10/18 09:04:16;;;;;;;;;;;;;;;12.84;100.00;99741.03;4936221;28;19923;-67
2021/10/18 09:06:48;;;;;;;;;;;;;;;12.87;100.00;99737.50;4934294;28;19999;-67
2021/10/18 09:09:14;;;;;;;;;;;;;;;13.07;100.00;99742.94;4936615;28;19921;-67
2021/10/18 09:11:39;;;;;;;;;;;;;;;13.29;100.00;99732.78;4935577;28;19917;-67
2021/10/18 09:14:05;;;;;;;;;;;;;;;13.37;100.00;99735.97;4929978;28;19990;-67
2021/10/18 09:16:30;;;;;;;;;;;;;;;13.45;100.00;99737.47;4943158;28;19926;-65
2021/10/18 09:19:00;;;;;;;;;;;;;;;13.80;100.00;99737.19;5010572;28;19913;-66
2021/10/18 09:21:36;;;;;;;;;;;;;;;14.35;100.00;99743.94;4928103;28;19915;-64
2021/10/18 09:24:02;;;;;;;;;;;;;;;14.17;100.00;99743.69;4933439;28;19927;-64
2021/10/18 09:26:31;;;;;;;;;;;;;;;14.35;100.00;99744.78;4923099;28;20217;-64
2021/10/18 09:28:56;;;;;;;;;;;;;;;14.14;100.00;99738.63;4920244;28;20381;-64
2021/10/18 09:31:23;;;;;;;;;;;;;;;13.85;100.00;99734.44;4896988;29;20026;-64
2021/10/18 09:33:55;;;;;;;;;;;;;;;14.49;100.00;99731.34;4918224;28;20366;-64
2021/10/18 09:36:24;;;;;;;;;;;;;;;14.87;100.00;99731.69;4931438;28;19925;-64
2021/10/18 09:38:49;;;;;;;;;;;;;;;14.84;100.00;99724.03;4911542;28;19926;-64
2021/10/18 09:41:15;;;;;;;;;;;;;;;14.44;100.00;99723.72;4919673;28;20381;-63
2021/10/18 09:43:46;;;;;;;;;;;;;;;14.55;100.00;99725.97;4899096;28;19929;-64
2021/10/18 09:46:22;;;;;;;;;;;;;;;14.78;100.00;99721.66;4946224;28;19961;-67
2021/10/18 10:52:40;;;;;;;;;;;;;;;17.60;100.00;99712.94;4945798;28;19944;-67
2021/10/18 10:55:19;;;;;;;;;;;;;;;18.03;100.00;99710.81;4936022;28;19917;-67
2021/10/18 10:57:44;;;;;;;;;;;;;;;17.78;100.00;99699.00;4935644;28;20016;-67
2021/10/18 11:00:09;;;;;;;;;;;;;;;17.55;100.00;99703.59;4896946;28;19978;-67
2021/10/18 11:02:35;;;;;;;;;;;;;;;17.24;100.00;99712.06;4897216;28;19921;-67
2021/10/18 11:05:00;;;;;;;;;;;;;;;17.22;100.00;99703.50;4939676;28;19926;-67
2021/10/18 11:07:35;;;;;;;;;;;;;;;17.08;100.00;99698.94;4937636;28;20018;-67
2021/10/18 11:10:01;;;;;;;;;;;;;;;17.26;100.00;99698.97;4930048;28;20003;-67
2021/10/18 11:12:30;;;;;;;;;;;;;;;17.32;100.00;99688.25;4936766;28;19921;-67
2021/10/18 11:14:56;;;;;;;;;;;;;;;17.52;100.00;99685.53;4938422;28;20577;-67
2021/10/18 11:17:22;;;;;;;;;;;;;;;17.80;100.00;99685.91;4970879;28;19919;-67
2021/10/18 11:19:55;;;;;;;;;;;;;;;17.63;100.00;99691.94;4932466;28;19926;-67
2021/10/18 11:22:24;;;;;;;;;;;;;;;18.42;100.00;99681.81;4932154;28;20714;-67
2021/10/18 11:24:50;;;;;;;;;;;;;;;18.22;100.00;99680.25;4931287;28;19927;-68
2021/10/18 11:27:22;;;;;;;;;;;;;;;18.12;100.00;99679.06;4944277;28;19915;-68
2021/10/18 11:29:47;;;;;;;;;;;;;;;17.76;100.00;99672.16;4927975;28;20424;-67
2021/10/18 11:32:13;;;;;;;;;;;;;;;18.06;100.00;99658.50;4896707;28;19961;-67
2021/10/18 11:34:38;;;;;;;;;;;;;;;18.67;100.00;99659.59;4923404;28;20300;-66
2021/10/18 11:37:04;;;;;;;;;;;;;;;17.88;100.00;99650.75;4912612;29;19953;-67
2021/10/18 11:39:29;;;;;;;;;;;;;;;18.10;100.00;99654.81;4913038;29;20373;-64
2021/10/18 11:41:58;;;;;;;;;;;;;;;18.16;100.00;99650.13;4921645;28;19925;-64
2021/10/18 11:44:43;;;;;;;;;;;;;;;17.94;100.00;99645.19;4917454;28;19950;-64
2021/10/18 11:47:28;;;;;;;;;;;;;;;18.64;100.00;99647.59;4944148;28;19959;-64
2021/10/18 11:50:10;;;;;;;;;;;;;;;18.89;100.00;99644.47;4942185;28;20432;-67
2021/10/18 11:52:40;;;;;;;;;;;;;;;18.67;100.00;99636.13;4946835;28;19920;-67
2021/10/18 11:55:07;;;;;;;;;;;;;;;18.78;100.00;99629.41;4929794;28;19915;-68
2021/10/18 11:57:33;;;;;;;;;;;;;;;19.57;100.00;99625.78;4935679;28;20041;-68
2021/10/18 12:00:00;;;;;;;;;;;;;;;18.65;100.00;99635.38;4946920;28;20029;-68
2021/10/18 12:02:25;;;;;;;;;;;;;;;18.76;100.00;99639.06;4938287;28;20425;-68
2021/10/18 12:04:54;;;;;;;;;;;;;;;19.10;100.00;99641.59;4929330;28;20013;-67
2021/10/18 12:07:36;;;;;;;;;;;;;;;18.97;99.54;99637.03;4930543;28;19958;-68
2021/10/18 12:10:22;;;;;;;;;;;;;;;19.40;99.15;99628.53;4936638;28;19927;-68
2021/10/18 12:13:06;;;;;;;;;;;;;;;19.38;100.00;99630.38;4935072;28;19945;-68
2021/10/18 12:15:31;;;;;;;;;;;;;;;20.06;100.00;99619.38;4930479;28;20022;-68
2021/10/18 12:18:00;;;;;;;;;;;;;;;19.14;98.26;99617.81;4946660;28;20004;-68
2021/10/18 12:20:25;;;;;;;;;;;;;;;19.94;100.00;99617.53;4943078;28;19923;-68
2021/10/18 12:23:17;;;;;;;;;;;;;;;20.03;98.78;99623.03;4966120;28;19948;-66
2021/10/18 12:25:50;;;;;;;;;;;;;;;20.68;100.00;99612.00;5008845;28;19979;-67
2021/10/18 12:28:25;;;;;;;;;;;;;;;20.40;96.89;99619.91;4974073;28;19919;-64
2021/10/18 12:30:50;;;;;;;;;;;;;;;20.24;94.43;99631.31;4934835;28;20005;-64
2021/10/18 12:33:15;;;;;;;;;;;;;;;20.78;93.19;99627.97;4938549;28;20013;-64
2021/10/18 12:35:41;;;;;;;;;;;;;;;19.97;100.00;99619.94;4934707;28;20299;-67
2021/10/18 12:38:10;;;;;;;;;;;;;;;20.41;94.76;99606.75;4928536;29;20335;-66
2021/10/18 12:40:36;;;;;;;;;;;;;;;19.95;97.81;99596.50;4933634;28;19949;-68
2021/10/18 12:43:02;;;;;;;;;;;;;;;19.79;87.07;99583.53;4927177;28;20392;-67
2021/10/18 12:45:32;;;;;;;;;;;;;;;20.12;96.93;99589.41;4928965;29;19965;-67
2021/10/18 12:47:59;;;;;;;;;;;;;;;20.56;95.24;99583.16;4946521;28;19919;-64
2021/10/18 12:50:25;;;;;;;;;;;;;;;19.63;92.92;99583.56;4905874;29;20332;-64
2021/10/18 12:52:54;;;;;;;;;;;;;;;20.62;92.14;99580.19;4928576;29;19965;-64
2021/10/18 12:55:21;;;;;;;;;;;;;;;19.95;95.34;99580.81;4939432;28;20381;-64
2021/10/18 12:57:47;;;;;;;;;;;;;;;19.54;94.80;99567.63;4940032;28;19917;-67
2021/10/18 13:00:14;;;;;;;;;;;;;;;20.26;97.96;99558.00;4955995;28;19919;-67
2021/10/18 13:02:39;;;;;;;;;;;;;;;19.94;89.44;99558.25;4903009;28;19937;-67
2021/10/18 13:05:05;;;;;;;;;;;;;;;19.73;99.12;99555.16;4947057;28;19924;-67
2021/10/18 13:07:33;;;;;;;;;;;;;;;20.21;100.00;99549.63;4919315;28;19942;-64
2021/10/18 13:09:59;;;;;;;;;;;;;;;19.43;100.00;99544.75;4940227;28;19915;-67
2021/10/18 13:12:26;;;;;;;;;;;;;;;19.91;100.00;99545.38;4931673;28;19916;-65
2021/10/18 13:14:54;;;;;;;;;;;;;;;19.78;100.00;99541.81;4939229;28;19954;-65
2021/10/18 13:17:21;;;;;;;;;;;;;;;19.84;100.00;99539.69;4931591;28;20017;-65
2021/10/18 13:19:46;;;;;;;;;;;;;;;20.27;100.00;99533.50;4933798;28;19973;-65
2021/10/18 13:22:11;;;;;;;;;;;;;;;19.97;100.00;99533.69;4904797;28;20364;-65
2021/10/18 13:24:37;;;;;;;;;;;;;;;19.73;99.65;99525.56;4897422;28;19957;-66
2021/10/18 13:27:04;;;;;;;;;;;;;;;19.79;100.00;99512.13;4933094;28;19921;-65
2021/10/18 13:29:30;;;;;;;;;;;;;;;19.39;100.00;99511.94;4934025;28;19915;-65
2021/10/18 13:31:55;;;;;;;;;;;;;;;19.19;100.00;99502.69;4937030;28;20586;-65
2021/10/18 13:34:20;;;;;;;;;;;;;;;19.16;99.73;99508.91;4938321;28;19925;-69
2021/10/18 13:36:46;;;;;;;;;;;;;;;19.63;100.00;99501.75;4933659;28;19961;-68
2021/10/18 13:39:11;;;;;;;;;;;;;;;18.80;100.00;99491.88;4946604;28;19915;-68
2021/10/18 13:41:36;;;;;;;;;;;;;;;19.17;100.00;99491.47;4931981;28;19977;-68
2021/10/18 13:44:05;;;;;;;;;;;;;;;18.84;100.00;99489.06;4941175;28;20363;-68
2021/10/18 13:46:30;;;;;;;;;;;;;;;18.78;100.00;99490.28;4903004;28;19930;-69